createdAt,value
2022-08-08T00:02:03.899Z,0.50
2022-08-08T00:04:48.921Z,0.40
2022-08-08T00:07:28.557Z,0.40
2022-08-08T00:09:58.398Z,0.50
2022-08-08T00:12:37.886Z,0.50
2022-08-08T00:15:24.341Z,0.50
2022-08-08T00:18:15.127Z,0.50
2022-08-08T00:20:54.910Z,0.50
2022-08-08T00:23:42.836Z,0.53
2022-08-08T00:26:26.284Z,0.50
2022-08-08T00:29:08.113Z,0.43
2022-08-08T00:32:20.846Z,0.60
2022-08-08T00:35:18.324Z,0.40
2022-08-08T00:38:31.317Z,0.43
2022-08-08T00:41:44.742Z,0.40
2022-08-08T00:44:44.100Z,0.60
2022-08-08T00:48:05.141Z,0.43
2022-08-08T00:50:58.625Z,0.43
2022-08-08T00:53:57.123Z,0.40
2022-08-08T00:57:02.721Z,0.40
2022-08-08T00:59:55.917Z,0.50
2022-08-08T01:03:59.237Z,0.50
2022-08-08T01:06:27.438Z,0.40
2022-08-08T01:09:35.987Z,0.30
2022-08-08T01:12:37.496Z,0.50
2022-08-08T01:15:43.408Z,0.50
2022-08-08T01:18:53.708Z,0.40
2022-08-08T01:22:13.587Z,0.50
2022-08-08T01:24:53.925Z,0.40
2022-08-08T01:27:50.729Z,0.40
2022-08-08T01:30:53.393Z,0.50
2022-08-08T01:33:53.845Z,0.40
2022-08-08T01:37:06.053Z,0.50
2022-08-08T01:40:04.705Z,0.40
2022-08-08T01:42:51.510Z,0.50
2022-08-08T01:45:25.027Z,0.50
2022-08-08T01:48:16.599Z,0.40
2022-08-08T01:51:01.045Z,0.53
2022-08-08T01:55:15.047Z,0.47
2022-08-08T01:56:57.777Z,0.50
2022-08-08T02:00:02.165Z,0.50
2022-08-08T02:03:55.203Z,0.60
2022-08-08T02:06:32.619Z,0.50
2022-08-08T02:09:18.048Z,0.40
2022-08-08T02:11:59.117Z,0.50
2022-08-08T02:14:33.800Z,0.50
2022-08-08T02:17:20.542Z,0.50
2022-08-08T02:20:14.701Z,0.50
2022-08-08T02:23:03.678Z,0.60
2022-08-08T02:26:00.410Z,0.60
2022-08-08T02:29:00.198Z,0.67
2022-08-08T02:31:59.534Z,0.60
2022-08-08T02:35:07.496Z,0.93
2022-08-08T02:38:25.392Z,0.50
2022-08-08T02:41:59.384Z,0.60
2022-08-08T02:44:57.122Z,0.60
2022-08-08T02:47:54.880Z,0.40
2022-08-08T02:50:30.248Z,0.50
2022-08-08T02:53:24.956Z,0.50
2022-08-08T02:56:34.248Z,0.47
2022-08-08T02:59:57.550Z,0.47
2022-08-08T03:03:07.908Z,0.60
2022-08-08T03:05:53.488Z,0.57
2022-08-08T03:08:54.993Z,0.50
2022-08-08T03:12:01.801Z,0.80
2022-08-08T03:15:59.220Z,0.60
2022-08-08T03:17:59.893Z,0.60
2022-08-08T03:20:51.676Z,0.60
2022-08-08T03:23:30.319Z,0.50
2022-08-08T03:26:07.421Z,0.57
2022-08-08T03:28:44.767Z,0.50
2022-08-08T03:32:05.266Z,0.50
2022-08-08T03:34:20.097Z,0.60
2022-08-08T03:36:48.685Z,0.60
2022-08-08T03:39:16.242Z,0.60
2022-08-08T03:42:26.773Z,0.57
2022-08-08T03:44:38.764Z,0.70
2022-08-08T03:47:19.637Z,0.53
2022-08-08T03:49:57.996Z,0.50
2022-08-08T03:52:33.940Z,0.60
2022-08-08T03:55:55.307Z,0.70
2022-08-08T03:58:35.874Z,0.60
2022-08-08T04:01:01.770Z,0.77
2022-08-08T04:03:59.107Z,0.50
2022-08-08T04:06:23.524Z,0.70
2022-08-08T04:08:56.313Z,0.60
2022-08-08T04:11:25.447Z,0.53
2022-08-08T04:14:03.896Z,0.50
2022-08-08T04:16:42.202Z,0.60
2022-08-08T04:19:23.716Z,0.60
2022-08-08T04:21:57.179Z,0.63
2022-08-08T04:24:28.719Z,0.67
2022-08-08T04:26:58.810Z,0.60
2022-08-08T04:29:33.139Z,0.50
2022-08-08T04:32:07.336Z,0.60
2022-08-08T04:34:49.165Z,0.80
2022-08-08T04:37:31.716Z,0.80
2022-08-08T04:40:07.087Z,0.70
2022-08-08T04:42:55.981Z,0.80
2022-08-08T04:45:26.285Z,0.70
2022-08-08T04:47:58.743Z,0.60
2022-08-08T04:50:37.900Z,0.70
2022-08-08T04:53:14.133Z,0.60
2022-08-08T04:55:59.546Z,0.67
2022-08-08T04:58:31.156Z,0.60
2022-08-08T05:01:08.947Z,0.60
2022-08-08T05:04:10.825Z,0.70
2022-08-08T05:06:32.828Z,0.70
2022-08-08T05:09:06.023Z,0.60
2022-08-08T05:11:39.381Z,0.83
2022-08-08T05:14:14.095Z,0.70
2022-08-08T05:16:54.581Z,0.80
2022-08-08T05:20:09.787Z,0.60
2022-08-08T05:22:20.845Z,0.70
2022-08-08T05:24:49.800Z,0.80
2022-08-08T05:27:21.611Z,0.70
2022-08-08T05:29:52.242Z,0.70
2022-08-08T05:32:24.767Z,0.90
2022-08-08T05:35:01.643Z,1.10
2022-08-08T05:37:52.719Z,1.10
2022-08-08T05:40:36.318Z,0.80
2022-08-08T05:43:38.345Z,0.70
2022-08-08T05:46:08.032Z,0.90
2022-08-08T05:48:39.182Z,0.90
2022-08-08T05:51:14.469Z,0.90
2022-08-08T05:54:25.797Z,0.90
2022-08-08T05:56:42.698Z,1.10
2022-08-08T06:00:00.731Z,0.93
2022-08-08T06:02:43.890Z,0.90
2022-08-08T06:05:32.961Z,0.80
2022-08-08T06:08:09.573Z,1.00
2022-08-08T06:10:49.282Z,1.20
2022-08-08T06:13:22.441Z,0.90
2022-08-08T06:15:55.301Z,0.87
2022-08-08T06:18:43.049Z,1.00
2022-08-08T06:21:27.946Z,1.00
2022-08-08T06:24:03.387Z,0.90
2022-08-08T06:26:45.560Z,1.07
2022-08-08T06:29:59.145Z,0.97
2022-08-08T06:32:31.755Z,0.90
2022-08-08T06:35:12.180Z,0.90
2022-08-08T06:38:04.911Z,0.90
2022-08-08T06:40:38.286Z,0.90
2022-08-08T06:43:19.998Z,1.10
2022-08-08T06:45:59.130Z,0.90
2022-08-08T06:48:26.648Z,0.97
2022-08-08T06:50:56.810Z,0.80
2022-08-08T06:53:26.010Z,1.00
2022-08-08T06:56:09.048Z,0.73
2022-08-08T06:58:37.122Z,0.80
2022-08-08T07:01:52.467Z,1.00
2022-08-08T07:04:40.449Z,0.83
2022-08-08T07:07:00.031Z,0.97
2022-08-08T07:09:56.470Z,0.80
2022-08-08T07:12:41.202Z,0.90
2022-08-08T07:15:32.279Z,0.90
2022-08-08T07:18:35.753Z,0.90
2022-08-08T07:21:05.253Z,1.00
2022-08-08T07:24:03.064Z,1.07
2022-08-08T07:26:40.860Z,0.73
2022-08-08T07:29:20.220Z,0.80
2022-08-08T07:31:58.242Z,1.00
2022-08-08T07:34:32.053Z,0.90
2022-08-08T07:37:11.848Z,1.07
2022-08-08T07:39:56.068Z,0.80
2022-08-08T07:42:33.503Z,1.00
2022-08-08T07:45:04.547Z,1.10
2022-08-08T07:47:39.261Z,1.10
2022-08-08T07:50:10.773Z,1.07
2022-08-08T07:52:46.805Z,0.90
2022-08-08T07:55:29.214Z,0.90
2022-08-08T07:58:08.293Z,1.17
2022-08-08T08:00:51.893Z,1.33
2022-08-08T08:03:43.638Z,0.83
2022-08-08T08:06:16.417Z,0.90
2022-08-08T08:08:54.484Z,0.83
2022-08-08T08:11:38.149Z,0.90
2022-08-08T08:14:52.102Z,0.93
2022-08-08T08:17:22.887Z,0.90
2022-08-08T08:19:58.216Z,0.73
2022-08-08T08:22:33.541Z,0.90
2022-08-08T08:25:08.144Z,0.90
2022-08-08T08:27:37.980Z,0.80
2022-08-08T08:30:14.092Z,0.90
2022-08-08T08:32:51.312Z,0.80
2022-08-08T08:35:49.030Z,0.70
2022-08-08T08:38:17.391Z,0.87
2022-08-08T08:40:51.391Z,0.60
2022-08-08T08:43:20.763Z,0.60
2022-08-08T08:45:57.886Z,0.80
2022-08-08T08:48:26.413Z,0.80
2022-08-08T08:50:55.633Z,0.93
2022-08-08T08:53:55.361Z,0.60
2022-08-08T08:56:23.692Z,0.57
2022-08-08T08:58:55.909Z,0.40
2022-08-08T09:01:34.265Z,0.35
2022-08-08T09:04:31.711Z,0.60
2022-08-08T09:07:03.117Z,0.60
2022-08-08T09:09:47.642Z,0.50
2022-08-08T09:12:26.267Z,0.40
2022-08-08T09:14:59.270Z,0.77
2022-08-08T09:17:52.499Z,0.40
2022-08-08T09:22:02.632Z,0.35
2022-08-08T09:23:10.484Z,0.20
2022-08-08T09:25:54.752Z,0.38
2022-08-08T09:28:37.315Z,0.20
2022-08-08T09:31:16.970Z,0.30
2022-08-08T09:34:14.711Z,0.50
2022-08-08T09:36:40.323Z,0.60
2022-08-08T09:39:21.572Z,0.50
2022-08-08T09:42:19.984Z,0.40
2022-08-08T09:45:20.595Z,0.38
2022-08-08T09:48:16.097Z,0.40
2022-08-08T09:50:55.838Z,0.30
2022-08-08T09:53:52.951Z,0.30
2022-08-08T09:56:22.068Z,0.30
2022-08-08T09:59:32.106Z,0.30
2022-08-08T10:01:59.878Z,0.30
2022-08-08T10:04:41.325Z,0.50
2022-08-08T10:07:16.342Z,0.50
2022-08-08T10:09:59.686Z,0.40
2022-08-08T10:12:54.085Z,0.40
2022-08-08T10:15:27.135Z,0.50
2022-08-08T10:18:06.566Z,0.40
2022-08-08T10:20:51.334Z,0.40
2022-08-08T10:23:58.525Z,0.40
2022-08-08T10:26:51.931Z,0.40
2022-08-08T10:29:23.004Z,0.30
2022-08-08T10:32:15.968Z,0.45
2022-08-08T10:34:57.019Z,0.50
2022-08-08T10:37:35.220Z,0.40
2022-08-08T10:40:16.091Z,0.40
2022-08-08T10:42:45.455Z,0.30
2022-08-08T10:45:15.898Z,0.40
2022-08-08T10:47:48.667Z,0.50
2022-08-08T10:50:30.662Z,0.35
2022-08-08T10:53:07.708Z,0.30
2022-08-08T10:55:46.728Z,0.50
2022-08-08T10:58:15.624Z,0.40
2022-08-08T11:00:48.494Z,0.40
2022-08-08T11:03:36.983Z,0.50
2022-08-08T11:06:12.554Z,0.30
2022-08-08T11:08:50.128Z,0.55
2022-08-08T11:11:32.186Z,0.40
2022-08-08T11:14:16.302Z,0.30
2022-08-08T11:16:46.558Z,0.40
2022-08-08T11:19:15.485Z,0.40
2022-08-08T11:21:55.664Z,0.40
2022-08-08T11:24:28.922Z,0.40
2022-08-08T11:26:59.634Z,0.43
2022-08-08T11:29:41.818Z,0.30
2022-08-08T11:32:19.100Z,0.47
2022-08-08T11:35:23.428Z,0.40
2022-08-08T11:38:36.446Z,0.57
2022-08-08T11:40:27.275Z,0.43
2022-08-08T11:43:00.139Z,0.40
2022-08-08T11:45:29.763Z,0.50
2022-08-08T11:48:05.376Z,0.40
2022-08-08T11:50:37.537Z,0.40
2022-08-08T11:53:06.148Z,0.50
2022-08-08T11:55:36.185Z,0.40
2022-08-08T11:58:14.398Z,0.40
2022-08-08T12:00:45.490Z,0.40
2022-08-08T12:03:30.771Z,0.25
2022-08-08T12:05:58.118Z,0.30
2022-08-08T12:08:36.958Z,0.30
2022-08-08T12:11:10.233Z,0.30
2022-08-08T12:14:02.975Z,0.20
2022-08-08T12:16:31.777Z,0.40
2022-08-08T12:19:12.137Z,0.30
2022-08-08T12:21:59.439Z,0.38
2022-08-08T12:24:28.150Z,0.32
2022-08-08T12:26:57.130Z,0.52
2022-08-08T12:29:40.951Z,0.38
2022-08-08T12:32:17.187Z,0.32
2022-08-08T12:35:01.337Z,0.50
2022-08-08T12:37:41.693Z,0.35
2022-08-08T12:40:22.543Z,0.47
2022-08-08T12:42:50.605Z,0.40
2022-08-08T12:45:59.590Z,0.38
2022-08-08T12:48:10.409Z,0.35
2022-08-08T12:50:57.492Z,0.30
2022-08-08T12:53:36.417Z,0.30
2022-08-08T12:56:19.693Z,0.40
2022-08-08T12:58:54.422Z,0.60
2022-08-08T13:01:37.691Z,0.40
2022-08-08T13:04:24.507Z,0.50
2022-08-08T13:07:03.083Z,0.30
2022-08-08T13:10:04.677Z,0.30
2022-08-08T13:12:36.439Z,0.50
2022-08-08T13:15:08.388Z,0.30
2022-08-08T13:18:09.407Z,0.30
2022-08-08T13:20:25.947Z,0.43
2022-08-08T13:23:30.107Z,0.32
2022-08-08T13:25:43.655Z,0.30
2022-08-08T13:28:17.531Z,0.40
2022-08-08T13:30:45.479Z,0.40
2022-08-08T13:33:18.387Z,0.40
2022-08-08T13:35:50.139Z,0.40
2022-08-08T13:38:18.290Z,0.30
2022-08-08T13:40:45.982Z,0.30
2022-08-08T13:43:16.734Z,0.30
2022-08-08T13:45:47.515Z,0.30
2022-08-08T13:48:25.137Z,0.40
2022-08-08T13:50:57.506Z,0.30
2022-08-08T13:53:36.048Z,0.40
2022-08-08T13:56:06.949Z,0.50
2022-08-08T13:58:57.685Z,0.40
2022-08-08T14:01:52.935Z,0.50
2022-08-08T14:04:24.271Z,0.45
2022-08-08T14:06:58.827Z,0.40
2022-08-08T14:10:04.486Z,0.77
2022-08-08T14:12:24.786Z,0.40
2022-08-08T14:14:51.999Z,0.40
2022-08-08T14:17:22.443Z,0.40
2022-08-08T14:20:15.757Z,0.30
2022-08-08T14:23:10.262Z,0.50
2022-08-08T14:25:54.214Z,0.32
2022-08-08T14:28:28.936Z,0.50
2022-08-08T14:31:09.320Z,0.30
2022-08-08T14:33:36.998Z,0.40
2022-08-08T14:36:06.106Z,0.50
2022-08-08T14:38:52.796Z,0.40
2022-08-08T14:41:53.312Z,0.40
2022-08-08T14:44:19.617Z,0.50
2022-08-08T14:46:58.528Z,0.40
2022-08-08T14:49:33.720Z,0.60
2022-08-08T14:52:21.295Z,0.52
2022-08-08T14:54:50.012Z,0.60
2022-08-08T14:57:16.911Z,0.55
2022-08-08T14:59:51.316Z,0.60
2022-08-08T15:02:31.068Z,0.50
2022-08-08T15:05:10.657Z,0.50
2022-08-08T15:07:40.712Z,0.50
2022-08-08T15:10:12.625Z,0.40
2022-08-08T15:12:41.221Z,0.47
2022-08-08T15:15:09.430Z,0.60
2022-08-08T15:17:37.962Z,0.60
2022-08-08T15:20:12.427Z,0.70
2022-08-08T15:22:42.713Z,0.63
2022-08-08T15:25:17.839Z,0.60
2022-08-08T15:28:03.507Z,0.70
2022-08-08T15:30:43.729Z,0.52
2022-08-08T15:33:14.251Z,0.60
2022-08-08T15:35:59.737Z,0.70
2022-08-08T15:38:27.190Z,0.75
2022-08-08T15:40:54.126Z,0.60
2022-08-08T15:43:36.472Z,0.70
2022-08-08T15:46:05.725Z,0.80
2022-08-08T15:48:32.659Z,0.68
2022-08-08T15:51:02.956Z,0.65
2022-08-08T15:53:40.616Z,0.60
2022-08-08T15:56:17.049Z,0.80
2022-08-08T15:58:48.875Z,0.90
2022-08-08T16:01:16.811Z,0.70
2022-08-08T16:03:46.003Z,0.95
2022-08-08T16:06:15.439Z,1.08
2022-08-08T16:13:03.182Z,0.85
2022-08-08T16:13:10.233Z,1.10
2022-08-08T16:14:34.933Z,1.00
2022-08-08T16:17:02.338Z,0.88
2022-08-08T16:19:56.940Z,1.17
2022-08-08T16:22:38.943Z,0.80
2022-08-08T16:25:08.786Z,1.42
2022-08-08T16:27:36.821Z,0.90
2022-08-08T16:30:14.340Z,0.95
2022-08-08T16:32:43.374Z,1.00
2022-08-08T16:35:15.665Z,1.00
2022-08-08T16:37:47.611Z,1.00
2022-08-08T16:40:19.555Z,1.10
2022-08-08T16:42:51.987Z,1.05
2022-08-08T16:46:36.229Z,1.00
2022-08-08T16:48:08.450Z,1.00
2022-08-08T16:50:35.789Z,0.82
2022-08-08T16:55:00.976Z,1.30
2022-08-08T16:55:54.171Z,0.80
2022-08-08T16:58:25.626Z,1.13
2022-08-08T17:00:55.403Z,1.05
2022-08-08T17:04:01.251Z,1.20
2022-08-08T17:06:37.221Z,1.08
2022-08-08T17:08:59.270Z,0.90
2022-08-08T17:11:28.343Z,1.02
2022-08-08T17:14:18.631Z,1.30
2022-08-08T17:16:57.575Z,1.45
2022-08-08T17:19:29.848Z,1.20
2022-08-08T17:22:01.463Z,0.80
2022-08-08T17:24:30.181Z,1.20
2022-08-08T17:26:59.008Z,1.00
2022-08-08T17:29:27.430Z,1.20
2022-08-08T17:31:55.034Z,1.20
2022-08-08T17:34:52.769Z,1.02
2022-08-08T17:37:13.469Z,1.30
2022-08-08T17:40:04.534Z,0.90
2022-08-08T17:42:27.775Z,1.00
2022-08-08T17:44:54.757Z,1.38
2022-08-08T17:47:37.451Z,1.48
2022-08-08T17:50:07.342Z,1.30
2022-08-08T17:52:35.583Z,1.30
2022-08-08T17:56:05.224Z,1.02
2022-08-08T17:57:53.404Z,1.20
2022-08-08T18:00:21.651Z,1.38
2022-08-08T18:03:07.773Z,1.10
2022-08-08T18:05:48.100Z,1.38
2022-08-08T18:08:37.898Z,1.23
2022-08-08T18:11:09.261Z,1.60
2022-08-08T18:13:42.021Z,1.40
2022-08-08T18:16:10.463Z,1.60
2022-08-08T18:18:42.429Z,1.30
2022-08-08T18:21:35.675Z,1.25
2022-08-08T18:23:59.405Z,1.42
2022-08-08T18:26:28.148Z,1.40
2022-08-08T18:28:55.853Z,1.30
2022-08-08T18:31:24.915Z,1.33
2022-08-08T18:34:25.708Z,1.35
2022-08-08T18:36:44.545Z,1.30
2022-08-08T18:39:16.322Z,1.35
2022-08-08T18:41:51.294Z,1.70
2022-08-08T18:44:27.682Z,1.70
2022-08-08T18:46:57.915Z,1.20
2022-08-08T18:49:32.276Z,1.40
2022-08-08T18:52:18.405Z,1.55
2022-08-08T18:55:01.006Z,1.48
2022-08-08T18:57:40.799Z,1.60
2022-08-08T19:00:15.767Z,1.55
2022-08-08T19:02:48.135Z,1.50
2022-08-08T19:05:22.346Z,1.67
2022-08-08T19:07:52.257Z,1.48
2022-08-08T19:10:19.559Z,1.40
2022-08-08T19:12:53.295Z,1.45
2022-08-08T19:15:21.712Z,1.57
2022-08-08T19:18:31.206Z,1.38
2022-08-08T19:20:43.071Z,1.57
2022-08-08T19:23:13.653Z,1.40
2022-08-08T19:26:26.845Z,1.60
2022-08-08T19:28:28.797Z,1.43
2022-08-08T19:31:04.331Z,1.73
2022-08-08T19:33:51.869Z,1.70
2022-08-08T19:36:27.653Z,1.90
2022-08-08T19:38:56.690Z,1.60
2022-08-08T19:41:29.112Z,1.80
2022-08-08T19:44:03.901Z,1.80
2022-08-08T19:46:39.782Z,1.63
2022-08-08T19:49:07.689Z,1.70
2022-08-08T19:51:43.169Z,1.70
2022-08-08T19:54:11.632Z,1.80
2022-08-08T19:56:41.332Z,1.90
2022-08-08T19:59:12.895Z,1.70
2022-08-08T20:02:01.024Z,2.20
2022-08-08T20:04:27.847Z,1.70
2022-08-08T20:06:57.805Z,1.80
2022-08-08T20:09:32.486Z,1.90
2022-08-08T20:12:05.052Z,1.90
2022-08-08T20:14:42.351Z,1.70
2022-08-08T20:17:27.735Z,1.57
2022-08-08T20:20:08.889Z,1.40
2022-08-08T20:22:38.726Z,1.60
2022-08-08T20:25:06.542Z,1.50
2022-08-08T20:27:49.477Z,1.60
2022-08-08T20:30:52.961Z,1.90
2022-08-08T20:33:08.147Z,1.77
2022-08-08T20:35:56.963Z,1.63
2022-08-08T20:38:32.212Z,1.40
2022-08-08T20:41:16.923Z,1.57
2022-08-08T20:43:48.253Z,1.47
2022-08-08T20:46:20.376Z,1.60
2022-08-08T20:48:51.391Z,1.60
2022-08-08T20:51:20.798Z,1.40
2022-08-08T20:54:01.039Z,1.83
2022-08-08T20:56:35.949Z,1.70
2022-08-08T20:59:09.202Z,1.33
2022-08-08T21:02:05.684Z,1.50
2022-08-08T21:04:27.382Z,1.60
2022-08-08T21:06:55.380Z,1.63
2022-08-08T21:09:22.325Z,1.67
2022-08-08T21:11:53.601Z,1.80
2022-08-08T21:14:34.464Z,1.60
2022-08-08T21:17:06.317Z,1.63
2022-08-08T21:19:46.066Z,1.70
2022-08-08T21:22:15.518Z,1.40
2022-08-08T21:24:52.725Z,1.60
2022-08-08T21:28:06.723Z,1.77
2022-08-08T21:30:18.826Z,1.40
2022-08-08T21:32:50.962Z,1.80
2022-08-08T21:36:17.115Z,1.60
2022-08-08T21:38:17.133Z,1.37
2022-08-08T21:40:55.435Z,1.77
2022-08-08T21:43:31.346Z,1.43
2022-08-08T21:48:06.451Z,1.60
2022-08-08T21:48:54.452Z,1.70
2022-08-08T21:54:16.773Z,1.70
2022-08-08T21:54:33.838Z,1.40
2022-08-08T21:57:03.737Z,1.80
2022-08-08T22:00:01.664Z,1.60
2022-08-08T22:02:19.559Z,1.70
2022-08-08T22:04:51.018Z,1.70
2022-08-08T22:07:19.014Z,1.70
2022-08-08T22:09:46.066Z,1.50
2022-08-08T22:12:17.056Z,1.60
2022-08-08T22:14:49.890Z,1.73
2022-08-08T22:17:19.135Z,1.23
2022-08-08T22:20:11.174Z,1.60
2022-08-08T22:22:37.960Z,1.50
2022-08-08T22:25:19.902Z,1.63
2022-08-08T22:28:03.704Z,1.77
2022-08-08T22:30:32.136Z,1.90
2022-08-08T22:33:01.148Z,2.00
2022-08-08T22:36:04.862Z,2.03
2022-08-08T22:38:17.761Z,1.77
2022-08-08T22:40:45.334Z,1.80
2022-08-08T22:43:16.974Z,1.90
2022-08-08T22:45:43.718Z,2.20
2022-08-08T22:48:14.710Z,2.10
2022-08-08T22:50:48.418Z,1.80
2022-08-08T22:54:31.104Z,1.87
2022-08-08T22:56:03.229Z,1.90
2022-08-08T22:58:33.106Z,1.73
2022-08-08T23:01:26.720Z,1.77
2022-08-08T23:03:55.885Z,1.83
2022-08-08T23:06:24.577Z,1.67
2022-08-08T23:08:55.593Z,2.00
2022-08-08T23:11:30.938Z,2.00
2022-08-08T23:14:16.571Z,2.03
2022-08-08T23:16:46.266Z,2.07
2022-08-08T23:19:16.429Z,1.90
2022-08-08T23:21:47.007Z,1.80
2022-08-08T23:24:22.428Z,2.43
2022-08-08T23:26:55.508Z,1.83
2022-08-08T23:29:23.795Z,1.97
2022-08-08T23:31:51.199Z,2.20
2022-08-08T23:34:19.515Z,2.17
2022-08-08T23:36:47.970Z,2.13
2022-08-08T23:39:15.587Z,2.17
2022-08-08T23:41:47.071Z,1.93
2022-08-08T23:44:18.484Z,1.97
2022-08-08T23:49:00.798Z,2.03
2022-08-08T23:49:34.350Z,1.80
2022-08-08T23:52:05.037Z,2.30
2022-08-08T23:54:53.395Z,2.03
2022-08-08T23:57:38.585Z,2.00
